sensor_id;sensor_type;location;lat;lon;timestamp;P1;durP1;ratioP1;P2;durP2;ratioP2
73951;SDS011;62304;47.662;18.324;2022-10-17T00:01:17;15.73;;;6.80;;
73951;SDS011;62304;47.662;18.324;2022-10-17T00:04:20;11.38;;;7.15;;
73951;SDS011;62304;47.662;18.324;2022-10-17T00:07:23;12.85;;;6.82;;
73951;SDS011;62304;47.662;18.324;2022-10-17T00:10:27;13.90;;;6.60;;
73951;SDS011;62304;47.662;18.324;2022-10-17T00:13:29;14.07;;;6.97;;
73951;SDS011;62304;47.662;18.324;2022-10-17T00:16:35;12.37;;;6.37;;
73951;SDS011;62304;47.662;18.324;2022-10-17T00:19:38;15.43;;;7.00;;
73951;SDS011;62304;47.662;18.324;2022-10-17T00:22:41;11.23;;;6.28;;
73951;SDS011;62304;47.662;18.324;2022-10-17T00:25:45;12.63;;;6.30;;
73951;SDS011;62304;47.662;18.324;2022-10-17T00:28:48;15.63;;;6.60;;
73951;SDS011;62304;47.662;18.324;2022-10-17T00:31:53;11.45;;;6.45;;
73951;SDS011;62304;47.662;18.324;2022-10-17T00:34:57;15.75;;;6.82;;
73951;SDS011;62304;47.662;18.324;2022-10-17T00:38:02;12.82;;;6.30;;
73951;SDS011;62304;47.662;18.324;2022-10-17T00:41:06;11.87;;;6.37;;
73951;SDS011;62304;47.662;18.324;2022-10-17T00:47:33;12.45;;;6.62;;
73951;SDS011;62304;47.662;18.324;2022-10-17T00:50:38;11.63;;;6.37;;
73951;SDS011;62304;47.662;18.324;2022-10-17T00:53:44;12.57;;;6.60;;
73951;SDS011;62304;47.662;18.324;2022-10-17T00:56:47;14.67;;;6.70;;
73951;SDS011;62304;47.662;18.324;2022-10-17T00:59:56;15.65;;;6.68;;
73951;SDS011;62304;47.662;18.324;2022-10-17T01:03:01;18.48;;;7.43;;
73951;SDS011;62304;47.662;18.324;2022-10-17T01:06:04;15.15;;;6.90;;
73951;SDS011;62304;47.662;18.324;2022-10-17T01:09:06;15.60;;;7.62;;
73951;SDS011;62304;47.662;18.324;2022-10-17T01:18:38;13.52;;;7.05;;
73951;SDS011;62304;47.662;18.324;2022-10-17T01:21:59;14.48;;;6.78;;
73951;SDS011;62304;47.662;18.324;2022-10-17T01:25:27;13.68;;;7.70;;
73951;SDS011;62304;47.662;18.324;2022-10-17T01:32:15;14.75;;;8.68;;
73951;SDS011;62304;47.662;18.324;2022-10-17T01:35:40;12.02;;;7.05;;
73951;SDS011;62304;47.662;18.324;2022-10-17T01:39:18;12.65;;;6.90;;
73951;SDS011;62304;47.662;18.324;2022-10-17T01:46:12;14.30;;;7.30;;
73951;SDS011;62304;47.662;18.324;2022-10-17T01:49:22;11.20;;;6.50;;
73951;SDS011;62304;47.662;18.324;2022-10-17T01:52:31;17.05;;;7.15;;
73951;SDS011;62304;47.662;18.324;2022-10-17T01:55:40;12.48;;;6.90;;
73951;SDS011;62304;47.662;18.324;2022-10-17T01:58:52;13.00;;;6.47;;
73951;SDS011;62304;47.662;18.324;2022-10-17T02:02:02;14.10;;;6.63;;
73951;SDS011;62304;47.662;18.324;2022-10-17T02:05:08;15.77;;;6.95;;
73951;SDS011;62304;47.662;18.324;2022-10-17T02:08:11;16.08;;;7.95;;
73951;SDS011;62304;47.662;18.324;2022-10-17T02:14:29;11.95;;;6.70;;
73951;SDS011;62304;47.662;18.324;2022-10-17T02:31:31;12.90;;;7.03;;
73951;SDS011;62304;47.662;18.324;2022-10-17T02:34:44;14.90;;;7.30;;
73951;SDS011;62304;47.662;18.324;2022-10-17T02:37:53;15.18;;;7.18;;
73951;SDS011;62304;47.662;18.324;2022-10-17T02:40:57;17.08;;;7.70;;
73951;SDS011;62304;47.662;18.324;2022-10-17T02:44:03;15.07;;;8.55;;
73951;SDS011;62304;47.662;18.324;2022-10-17T02:47:10;12.27;;;6.95;;
73951;SDS011;62304;47.662;18.324;2022-10-17T02:50:21;14.50;;;7.63;;
73951;SDS011;62304;47.662;18.324;2022-10-17T02:53:43;13.73;;;6.87;;
73951;SDS011;62304;47.662;18.324;2022-10-17T02:56:58;11.45;;;6.97;;
73951;SDS011;62304;47.662;18.324;2022-10-17T03:00:06;14.10;;;7.97;;
73951;SDS011;62304;47.662;18.324;2022-10-17T03:06:28;16.97;;;8.97;;
73951;SDS011;62304;47.662;18.324;2022-10-17T03:09:32;14.85;;;8.73;;
73951;SDS011;62304;47.662;18.324;2022-10-17T03:12:34;18.70;;;10.02;;
73951;SDS011;62304;47.662;18.324;2022-10-17T03:15:37;18.23;;;8.55;;
73951;SDS011;62304;47.662;18.324;2022-10-17T03:18:40;19.08;;;8.82;;
73951;SDS011;62304;47.662;18.324;2022-10-17T03:21:49;16.37;;;8.67;;
73951;SDS011;62304;47.662;18.324;2022-10-17T03:24:52;17.23;;;8.13;;
73951;SDS011;62304;47.662;18.324;2022-10-17T03:27:57;14.23;;;8.35;;
73951;SDS011;62304;47.662;18.324;2022-10-17T03:31:08;15.52;;;8.43;;
73951;SDS011;62304;47.662;18.324;2022-10-17T03:34:12;19.10;;;8.32;;
73951;SDS011;62304;47.662;18.324;2022-10-17T03:37:18;18.57;;;7.97;;
73951;SDS011;62304;47.662;18.324;2022-10-17T03:40:21;15.25;;;8.23;;
73951;SDS011;62304;47.662;18.324;2022-10-17T03:43:24;17.70;;;9.73;;
73951;SDS011;62304;47.662;18.324;2022-10-17T03:46:27;18.52;;;9.00;;
73951;SDS011;62304;47.662;18.324;2022-10-17T03:49:30;20.95;;;9.40;;
73951;SDS011;62304;47.662;18.324;2022-10-17T03:52:33;18.40;;;9.23;;
73951;SDS011;62304;47.662;18.324;2022-10-17T03:55:36;16.55;;;8.85;;
73951;SDS011;62304;47.662;18.324;2022-10-17T03:58:40;19.02;;;9.43;;
73951;SDS011;62304;47.662;18.324;2022-10-17T04:01:43;20.50;;;9.20;;
73951;SDS011;62304;47.662;18.324;2022-10-17T04:04:47;13.20;;;8.77;;
73951;SDS011;62304;47.662;18.324;2022-10-17T04:07:50;16.03;;;8.60;;
73951;SDS011;62304;47.662;18.324;2022-10-17T04:10:58;14.85;;;8.35;;
73951;SDS011;62304;47.662;18.324;2022-10-17T04:14:02;19.37;;;8.88;;
73951;SDS011;62304;47.662;18.324;2022-10-17T04:17:05;20.52;;;10.10;;
73951;SDS011;62304;47.662;18.324;2022-10-17T04:20:08;18.85;;;10.05;;
73951;SDS011;62304;47.662;18.324;2022-10-17T04:23:12;16.80;;;9.27;;
73951;SDS011;62304;47.662;18.324;2022-10-17T04:26:15;20.35;;;9.70;;
73951;SDS011;62304;47.662;18.324;2022-10-17T04:29:18;19.27;;;8.88;;
73951;SDS011;62304;47.662;18.324;2022-10-17T04:32:21;15.73;;;8.90;;
73951;SDS011;62304;47.662;18.324;2022-10-17T04:35:24;18.50;;;9.88;;
73951;SDS011;62304;47.662;18.324;2022-10-17T04:38:28;17.97;;;9.43;;
73951;SDS011;62304;47.662;18.324;2022-10-17T04:41:31;18.98;;;9.57;;
73951;SDS011;62304;47.662;18.324;2022-10-17T04:44:35;17.50;;;10.77;;
73951;SDS011;62304;47.662;18.324;2022-10-17T04:47:39;23.55;;;11.90;;
73951;SDS011;62304;47.662;18.324;2022-10-17T04:50:51;18.30;;;9.93;;
73951;SDS011;62304;47.662;18.324;2022-10-17T04:53:59;19.17;;;10.37;;
73951;SDS011;62304;47.662;18.324;2022-10-17T04:57:02;23.62;;;10.23;;
73951;SDS011;62304;47.662;18.324;2022-10-17T05:00:05;21.77;;;10.02;;
73951;SDS011;62304;47.662;18.324;2022-10-17T05:03:18;21.17;;;9.77;;
73951;SDS011;62304;47.662;18.324;2022-10-17T05:06:22;18.98;;;10.38;;
73951;SDS011;62304;47.662;18.324;2022-10-17T05:09:29;21.60;;;10.47;;
73951;SDS011;62304;47.662;18.324;2022-10-17T05:12:32;19.02;;;9.98;;
73951;SDS011;62304;47.662;18.324;2022-10-17T05:15:35;25.00;;;11.00;;
73951;SDS011;62304;47.662;18.324;2022-10-17T05:18:39;25.52;;;11.65;;
73951;SDS011;62304;47.662;18.324;2022-10-17T05:21:42;20.48;;;9.68;;
73951;SDS011;62304;47.662;18.324;2022-10-17T05:24:47;20.37;;;9.60;;
73951;SDS011;62304;47.662;18.324;2022-10-17T05:27:50;26.60;;;9.98;;
73951;SDS011;62304;47.662;18.324;2022-10-17T05:30:53;24.35;;;10.73;;
73951;SDS011;62304;47.662;18.324;2022-10-17T05:33:59;21.62;;;9.57;;
73951;SDS011;62304;47.662;18.324;2022-10-17T05:37:04;24.55;;;9.60;;
73951;SDS011;62304;47.662;18.324;2022-10-17T05:40:07;30.30;;;10.90;;
73951;SDS011;62304;47.662;18.324;2022-10-17T05:43:11;29.40;;;11.38;;
73951;SDS011;62304;47.662;18.324;2022-10-17T05:46:13;24.67;;;12.50;;
73951;SDS011;62304;47.662;18.324;2022-10-17T05:49:16;36.60;;;12.40;;
73951;SDS011;62304;47.662;18.324;2022-10-17T05:52:34;20.73;;;11.05;;
73951;SDS011;62304;47.662;18.324;2022-10-17T05:55:37;28.63;;;11.23;;
73951;SDS011;62304;47.662;18.324;2022-10-17T05:58:41;23.52;;;10.15;;
73951;SDS011;62304;47.662;18.324;2022-10-17T06:01:56;29.02;;;10.88;;
73951;SDS011;62304;47.662;18.324;2022-10-17T06:05:00;28.52;;;10.68;;
73951;SDS011;62304;47.662;18.324;2022-10-17T06:08:03;25.25;;;10.70;;
73951;SDS011;62304;47.662;18.324;2022-10-17T06:11:07;22.40;;;10.90;;
73951;SDS011;62304;47.662;18.324;2022-10-17T06:14:12;20.10;;;9.73;;
73951;SDS011;62304;47.662;18.324;2022-10-17T06:17:15;14.27;;;8.63;;
73951;SDS011;62304;47.662;18.324;2022-10-17T06:20:18;15.30;;;9.02;;
73951;SDS011;62304;47.662;18.324;2022-10-17T06:23:21;19.52;;;8.10;;
73951;SDS011;62304;47.662;18.324;2022-10-17T06:26:26;15.10;;;8.17;;
73951;SDS011;62304;47.662;18.324;2022-10-17T06:29:30;15.38;;;7.62;;
73951;SDS011;62304;47.662;18.324;2022-10-17T06:32:32;15.90;;;8.38;;
73951;SDS011;62304;47.662;18.324;2022-10-17T06:35:35;13.62;;;7.50;;
73951;SDS011;62304;47.662;18.324;2022-10-17T06:38:38;14.13;;;7.97;;
73951;SDS011;62304;47.662;18.324;2022-10-17T06:41:42;12.70;;;7.10;;
73951;SDS011;62304;47.662;18.324;2022-10-17T06:44:46;14.35;;;7.68;;
73951;SDS011;62304;47.662;18.324;2022-10-17T06:47:49;16.42;;;7.35;;
73951;SDS011;62304;47.662;18.324;2022-10-17T06:51:00;18.08;;;7.60;;
73951;SDS011;62304;47.662;18.324;2022-10-17T06:54:03;14.95;;;7.32;;
73951;SDS011;62304;47.662;18.324;2022-10-17T06:57:07;13.07;;;6.80;;
73951;SDS011;62304;47.662;18.324;2022-10-17T07:00:10;14.27;;;6.93;;
73951;SDS011;62304;47.662;18.324;2022-10-17T07:03:14;15.13;;;6.93;;
73951;SDS011;62304;47.662;18.324;2022-10-17T07:06:17;12.63;;;7.20;;
73951;SDS011;62304;47.662;18.324;2022-10-17T07:09:20;11.55;;;6.30;;
73951;SDS011;62304;47.662;18.324;2022-10-17T07:12:24;10.17;;;5.50;;
73951;SDS011;62304;47.662;18.324;2022-10-17T07:15:27;12.80;;;6.45;;
73951;SDS011;62304;47.662;18.324;2022-10-17T07:18:31;15.10;;;7.35;;
73951;SDS011;62304;47.662;18.324;2022-10-17T07:21:33;14.52;;;6.70;;
73951;SDS011;62304;47.662;18.324;2022-10-17T07:24:40;10.10;;;6.00;;
73951;SDS011;62304;47.662;18.324;2022-10-17T07:27:47;11.07;;;5.90;;
73951;SDS011;62304;47.662;18.324;2022-10-17T07:30:53;10.45;;;5.37;;
73951;SDS011;62304;47.662;18.324;2022-10-17T07:33:57;16.27;;;6.25;;
73951;SDS011;62304;47.662;18.324;2022-10-17T07:37:02;13.45;;;6.03;;
73951;SDS011;62304;47.662;18.324;2022-10-17T07:40:06;10.55;;;5.85;;
73951;SDS011;62304;47.662;18.324;2022-10-17T07:43:11;11.47;;;5.97;;
73951;SDS011;62304;47.662;18.324;2022-10-17T07:46:14;10.65;;;5.90;;
73951;SDS011;62304;47.662;18.324;2022-10-17T07:49:18;10.70;;;5.55;;
73951;SDS011;62304;47.662;18.324;2022-10-17T07:52:21;12.35;;;6.00;;
73951;SDS011;62304;47.662;18.324;2022-10-17T07:55:24;9.88;;;5.55;;
73951;SDS011;62304;47.662;18.324;2022-10-17T07:58:27;9.67;;;5.80;;
73951;SDS011;62304;47.662;18.324;2022-10-17T08:01:30;10.73;;;4.18;;
73951;SDS011;62304;47.662;18.324;2022-10-17T08:04:33;9.20;;;3.62;;
73951;SDS011;62304;47.662;18.324;2022-10-17T08:07:37;9.40;;;5.37;;
73951;SDS011;62304;47.662;18.324;2022-10-17T08:10:41;8.20;;;4.85;;
73951;SDS011;62304;47.662;18.324;2022-10-17T08:13:44;9.97;;;4.73;;
73951;SDS011;62304;47.662;18.324;2022-10-17T08:16:47;14.87;;;5.85;;
73951;SDS011;62304;47.662;18.324;2022-10-17T08:19:49;11.48;;;5.57;;
73951;SDS011;62304;47.662;18.324;2022-10-17T08:22:53;7.97;;;4.85;;
73951;SDS011;62304;47.662;18.324;2022-10-17T08:26:00;9.90;;;5.32;;
73951;SDS011;62304;47.662;18.324;2022-10-17T08:29:04;11.00;;;4.67;;
73951;SDS011;62304;47.662;18.324;2022-10-17T08:32:07;11.70;;;4.70;;
73951;SDS011;62304;47.662;18.324;2022-10-17T08:35:13;9.90;;;4.40;;
73951;SDS011;62304;47.662;18.324;2022-10-17T08:38:16;10.52;;;5.43;;
73951;SDS011;62304;47.662;18.324;2022-10-17T08:47:59;11.68;;;4.35;;
73951;SDS011;62304;47.662;18.324;2022-10-17T08:51:09;8.30;;;4.65;;
73951;SDS011;62304;47.662;18.324;2022-10-17T08:54:19;9.43;;;4.72;;
73951;SDS011;62304;47.662;18.324;2022-10-17T08:57:27;7.53;;;4.12;;
73951;SDS011;62304;47.662;18.324;2022-10-17T09:00:32;7.10;;;4.50;;
73951;SDS011;62304;47.662;18.324;2022-10-17T09:07:19;9.07;;;4.47;;
73951;SDS011;62304;47.662;18.324;2022-10-17T09:17:03;10.77;;;4.40;;
73951;SDS011;62304;47.662;18.324;2022-10-17T09:20:14;12.98;;;5.93;;
73951;SDS011;62304;47.662;18.324;2022-10-17T09:23:24;10.68;;;5.18;;
73951;SDS011;62304;47.662;18.324;2022-10-17T09:26:31;7.20;;;5.05;;
73951;SDS011;62304;47.662;18.324;2022-10-17T09:29:36;9.80;;;4.62;;
73951;SDS011;62304;47.662;18.324;2022-10-17T09:32:45;12.13;;;5.37;;
73951;SDS011;62304;47.662;18.324;2022-10-17T09:35:49;8.25;;;5.10;;
73951;SDS011;62304;47.662;18.324;2022-10-17T09:38:56;7.90;;;5.07;;
73951;SDS011;62304;47.662;18.324;2022-10-17T09:42:02;7.55;;;4.37;;
73951;SDS011;62304;47.662;18.324;2022-10-17T09:45:15;9.65;;;3.80;;
73951;SDS011;62304;47.662;18.324;2022-10-17T09:48:29;12.87;;;5.03;;
73951;SDS011;62304;47.662;18.324;2022-10-17T09:51:38;11.63;;;4.40;;
73951;SDS011;62304;47.662;18.324;2022-10-17T09:58:10;9.18;;;4.70;;
73951;SDS011;62304;47.662;18.324;2022-10-17T10:01:26;8.68;;;5.50;;
73951;SDS011;62304;47.662;18.324;2022-10-17T10:04:30;11.80;;;5.17;;
73951;SDS011;62304;47.662;18.324;2022-10-17T10:08:04;11.57;;;5.40;;
73951;SDS011;62304;47.662;18.324;2022-10-17T10:11:14;7.43;;;4.10;;
73951;SDS011;62304;47.662;18.324;2022-10-17T10:17:41;12.02;;;4.95;;
73951;SDS011;62304;47.662;18.324;2022-10-17T10:20:44;12.80;;;4.93;;
73951;SDS011;62304;47.662;18.324;2022-10-17T10:27:13;12.05;;;4.60;;
73951;SDS011;62304;47.662;18.324;2022-10-17T10:30:19;8.63;;;4.18;;
73951;SDS011;62304;47.662;18.324;2022-10-17T10:33:27;7.60;;;4.03;;
73951;SDS011;62304;47.662;18.324;2022-10-17T10:36:42;7.30;;;3.90;;
73951;SDS011;62304;47.662;18.324;2022-10-17T10:39:55;7.00;;;4.20;;
73951;SDS011;62304;47.662;18.324;2022-10-17T10:42:58;8.85;;;4.07;;
73951;SDS011;62304;47.662;18.324;2022-10-17T10:46:16;8.38;;;4.00;;
73951;SDS011;62304;47.662;18.324;2022-10-17T10:49:29;7.10;;;4.25;;
73951;SDS011;62304;47.662;18.324;2022-10-17T10:52:37;12.47;;;4.97;;
73951;SDS011;62304;47.662;18.324;2022-10-17T10:55:46;7.40;;;4.80;;
73951;SDS011;62304;47.662;18.324;2022-10-17T11:05:48;9.80;;;4.97;;
73951;SDS011;62304;47.662;18.324;2022-10-17T11:12:40;5.60;;;3.95;;
73951;SDS011;62304;47.662;18.324;2022-10-17T11:15:47;11.52;;;4.95;;
73951;SDS011;62304;47.662;18.324;2022-10-17T11:19:01;12.27;;;4.60;;
73951;SDS011;62304;47.662;18.324;2022-10-17T11:22:25;8.50;;;4.45;;
73951;SDS011;62304;47.662;18.324;2022-10-17T11:25:33;9.57;;;4.90;;
73951;SDS011;62304;47.662;18.324;2022-10-17T11:28:38;10.45;;;5.05;;
73951;SDS011;62304;47.662;18.324;2022-10-17T11:31:42;7.37;;;3.33;;
73951;SDS011;62304;47.662;18.324;2022-10-17T11:34:52;17.52;;;5.22;;
73951;SDS011;62304;47.662;18.324;2022-10-17T11:41:41;8.80;;;3.77;;
73951;SDS011;62304;47.662;18.324;2022-10-17T11:44:47;7.95;;;4.32;;
73951;SDS011;62304;47.662;18.324;2022-10-17T11:48:01;6.22;;;3.75;;
73951;SDS011;62304;47.662;18.324;2022-10-17T11:51:10;8.75;;;3.80;;
73951;SDS011;62304;47.662;18.324;2022-10-17T11:54:42;13.18;;;4.68;;
73951;SDS011;62304;47.662;18.324;2022-10-17T12:01:53;9.00;;;4.22;;
73951;SDS011;62304;47.662;18.324;2022-10-17T12:11:56;9.85;;;4.80;;
73951;SDS011;62304;47.662;18.324;2022-10-17T12:18:23;14.10;;;4.53;;
73951;SDS011;62304;47.662;18.324;2022-10-17T12:21:41;7.82;;;4.15;;
73951;SDS011;62304;47.662;18.324;2022-10-17T12:25:00;9.02;;;4.87;;
73951;SDS011;62304;47.662;18.324;2022-10-17T12:28:18;7.32;;;4.43;;
73951;SDS011;62304;47.662;18.324;2022-10-17T12:31:32;10.03;;;4.27;;
73951;SDS011;62304;47.662;18.324;2022-10-17T12:34:35;6.95;;;4.03;;
73951;SDS011;62304;47.662;18.324;2022-10-17T12:37:58;9.77;;;4.80;;
73951;SDS011;62304;47.662;18.324;2022-10-17T12:41:03;9.93;;;4.45;;
73951;SDS011;62304;47.662;18.324;2022-10-17T12:47:27;11.30;;;5.13;;
73951;SDS011;62304;47.662;18.324;2022-10-17T12:54:30;8.85;;;5.00;;
73951;SDS011;62304;47.662;18.324;2022-10-17T13:01:17;9.50;;;5.30;;
73951;SDS011;62304;47.662;18.324;2022-10-17T13:04:27;10.33;;;4.47;;
73951;SDS011;62304;47.662;18.324;2022-10-17T13:07:32;7.70;;;4.78;;
73951;SDS011;62304;47.662;18.324;2022-10-17T13:10:37;8.57;;;4.57;;
73951;SDS011;62304;47.662;18.324;2022-10-17T13:13:45;10.10;;;4.60;;
73951;SDS011;62304;47.662;18.324;2022-10-17T13:16:54;8.45;;;4.55;;
73951;SDS011;62304;47.662;18.324;2022-10-17T13:19:57;9.53;;;4.30;;
73951;SDS011;62304;47.662;18.324;2022-10-17T13:23:00;8.85;;;4.47;;
73951;SDS011;62304;47.662;18.324;2022-10-17T13:29:24;13.98;;;4.65;;
73951;SDS011;62304;47.662;18.324;2022-10-17T13:32:34;10.23;;;4.25;;
73951;SDS011;62304;47.662;18.324;2022-10-17T13:35:38;9.23;;;4.77;;
73951;SDS011;62304;47.662;18.324;2022-10-17T13:39:05;7.62;;;4.47;;
73951;SDS011;62304;47.662;18.324;2022-10-17T13:42:39;12.02;;;5.18;;
73951;SDS011;62304;47.662;18.324;2022-10-17T13:45:44;9.63;;;4.90;;
73951;SDS011;62304;47.662;18.324;2022-10-17T13:48:53;9.77;;;4.00;;
73951;SDS011;62304;47.662;18.324;2022-10-17T13:51:59;8.67;;;4.93;;
73951;SDS011;62304;47.662;18.324;2022-10-17T13:55:11;10.32;;;4.95;;
73951;SDS011;62304;47.662;18.324;2022-10-17T13:58:19;11.57;;;5.25;;
73951;SDS011;62304;47.662;18.324;2022-10-17T14:01:23;9.52;;;5.20;;
73951;SDS011;62304;47.662;18.324;2022-10-17T14:04:28;10.98;;;5.18;;
73951;SDS011;62304;47.662;18.324;2022-10-17T14:08:02;8.63;;;4.67;;
73951;SDS011;62304;47.662;18.324;2022-10-17T14:11:17;8.25;;;5.03;;
73951;SDS011;62304;47.662;18.324;2022-10-17T14:14:24;8.75;;;4.37;;
73951;SDS011;62304;47.662;18.324;2022-10-17T14:17:28;8.45;;;4.18;;
73951;SDS011;62304;47.662;18.324;2022-10-17T14:20:32;7.95;;;4.37;;
73951;SDS011;62304;47.662;18.324;2022-10-17T14:24:13;7.40;;;3.77;;
73951;SDS011;62304;47.662;18.324;2022-10-17T14:27:51;12.35;;;4.68;;
73951;SDS011;62304;47.662;18.324;2022-10-17T14:31:24;11.82;;;4.65;;
73951;SDS011;62304;47.662;18.324;2022-10-17T14:34:32;12.13;;;4.22;;
73951;SDS011;62304;47.662;18.324;2022-10-17T14:37:41;18.87;;;7.68;;
73951;SDS011;62304;47.662;18.324;2022-10-17T14:41:06;12.50;;;4.77;;
73951;SDS011;62304;47.662;18.324;2022-10-17T14:44:49;11.35;;;4.35;;
73951;SDS011;62304;47.662;18.324;2022-10-17T14:47:55;9.65;;;4.50;;
73951;SDS011;62304;47.662;18.324;2022-10-17T14:54:24;10.68;;;4.50;;
73951;SDS011;62304;47.662;18.324;2022-10-17T15:00:34;13.15;;;6.50;;
73951;SDS011;62304;47.662;18.324;2022-10-17T15:03:37;28.10;;;11.02;;
73951;SDS011;62304;47.662;18.324;2022-10-17T15:06:39;26.27;;;12.15;;
73951;SDS011;62304;47.662;18.324;2022-10-17T15:09:45;16.40;;;6.65;;
73951;SDS011;62304;47.662;18.324;2022-10-17T15:12:49;9.53;;;4.50;;
73951;SDS011;62304;47.662;18.324;2022-10-17T15:19:32;9.85;;;4.57;;
73951;SDS011;62304;47.662;18.324;2022-10-17T15:22:34;12.32;;;5.37;;
73951;SDS011;62304;47.662;18.324;2022-10-17T15:25:39;9.95;;;4.80;;
73951;SDS011;62304;47.662;18.324;2022-10-17T15:28:42;17.13;;;6.50;;
73951;SDS011;62304;47.662;18.324;2022-10-17T15:31:47;15.07;;;8.38;;
73951;SDS011;62304;47.662;18.324;2022-10-17T15:34:51;29.15;;;15.23;;
73951;SDS011;62304;47.662;18.324;2022-10-17T15:37:54;21.67;;;13.90;;
73951;SDS011;62304;47.662;18.324;2022-10-17T15:40:57;41.47;;;20.67;;
73951;SDS011;62304;47.662;18.324;2022-10-17T15:44:00;74.13;;;33.73;;
73951;SDS011;62304;47.662;18.324;2022-10-17T15:47:03;43.75;;;23.02;;
73951;SDS011;62304;47.662;18.324;2022-10-17T15:50:21;39.05;;;21.92;;
73951;SDS011;62304;47.662;18.324;2022-10-17T15:53:24;27.27;;;16.92;;
73951;SDS011;62304;47.662;18.324;2022-10-17T15:56:37;25.75;;;13.23;;
73951;SDS011;62304;47.662;18.324;2022-10-17T15:59:42;20.63;;;9.57;;
73951;SDS011;62304;47.662;18.324;2022-10-17T16:02:49;23.10;;;10.15;;
73951;SDS011;62304;47.662;18.324;2022-10-17T16:05:52;24.87;;;12.15;;
73951;SDS011;62304;47.662;18.324;2022-10-17T16:08:58;22.70;;;11.07;;
73951;SDS011;62304;47.662;18.324;2022-10-17T16:12:06;22.95;;;9.95;;
73951;SDS011;62304;47.662;18.324;2022-10-17T16:15:16;16.30;;;9.33;;
73951;SDS011;62304;47.662;18.324;2022-10-17T16:18:25;17.05;;;9.05;;
73951;SDS011;62304;47.662;18.324;2022-10-17T16:21:29;16.87;;;9.30;;
73951;SDS011;62304;47.662;18.324;2022-10-17T16:24:34;26.65;;;13.75;;
73951;SDS011;62304;47.662;18.324;2022-10-17T16:27:37;44.80;;;19.70;;
73951;SDS011;62304;47.662;18.324;2022-10-17T16:30:41;53.53;;;24.10;;
73951;SDS011;62304;47.662;18.324;2022-10-17T16:33:48;57.67;;;25.98;;
73951;SDS011;62304;47.662;18.324;2022-10-17T16:36:53;39.45;;;17.35;;
73951;SDS011;62304;47.662;18.324;2022-10-17T16:39:56;37.97;;;15.48;;
73951;SDS011;62304;47.662;18.324;2022-10-17T16:43:00;24.83;;;9.90;;
73951;SDS011;62304;47.662;18.324;2022-10-17T16:46:03;17.03;;;8.57;;
73951;SDS011;62304;47.662;18.324;2022-10-17T16:49:06;17.52;;;7.20;;
73951;SDS011;62304;47.662;18.324;2022-10-17T16:52:09;15.15;;;6.40;;
73951;SDS011;62304;47.662;18.324;2022-10-17T16:55:13;15.90;;;7.07;;
73951;SDS011;62304;47.662;18.324;2022-10-17T16:58:15;13.65;;;7.57;;
73951;SDS011;62304;47.662;18.324;2022-10-17T17:01:20;14.73;;;7.00;;
73951;SDS011;62304;47.662;18.324;2022-10-17T17:04:24;14.27;;;7.70;;
73951;SDS011;62304;47.662;18.324;2022-10-17T17:07:28;17.02;;;7.75;;
73951;SDS011;62304;47.662;18.324;2022-10-17T17:10:32;21.27;;;8.23;;
73951;SDS011;62304;47.662;18.324;2022-10-17T17:13:36;14.60;;;6.22;;
73951;SDS011;62304;47.662;18.324;2022-10-17T17:16:39;13.63;;;7.33;;
73951;SDS011;62304;47.662;18.324;2022-10-17T17:19:43;17.92;;;10.32;;
73951;SDS011;62304;47.662;18.324;2022-10-17T17:22:48;21.75;;;11.40;;
73951;SDS011;62304;47.662;18.324;2022-10-17T17:25:59;24.50;;;12.02;;
73951;SDS011;62304;47.662;18.324;2022-10-17T17:29:04;35.00;;;14.43;;
73951;SDS011;62304;47.662;18.324;2022-10-17T17:32:07;41.03;;;15.47;;
73951;SDS011;62304;47.662;18.324;2022-10-17T17:35:10;36.78;;;15.60;;
73951;SDS011;62304;47.662;18.324;2022-10-17T17:38:14;46.85;;;20.60;;
73951;SDS011;62304;47.662;18.324;2022-10-17T17:41:17;44.60;;;21.30;;
73951;SDS011;62304;47.662;18.324;2022-10-17T17:44:22;37.10;;;18.17;;
73951;SDS011;62304;47.662;18.324;2022-10-17T17:47:29;31.17;;;14.70;;
73951;SDS011;62304;47.662;18.324;2022-10-17T17:50:35;23.85;;;11.82;;
73951;SDS011;62304;47.662;18.324;2022-10-17T17:53:39;35.83;;;15.68;;
73951;SDS011;62304;47.662;18.324;2022-10-17T17:56:42;45.78;;;19.87;;
73951;SDS011;62304;47.662;18.324;2022-10-17T17:59:45;36.92;;;17.87;;
73951;SDS011;62304;47.662;18.324;2022-10-17T18:02:49;29.87;;;14.13;;
73951;SDS011;62304;47.662;18.324;2022-10-17T18:05:53;29.20;;;12.45;;
73951;SDS011;62304;47.662;18.324;2022-10-17T18:08:56;30.95;;;13.60;;
73951;SDS011;62304;47.662;18.324;2022-10-17T18:12:00;23.77;;;11.63;;
73951;SDS011;62304;47.662;18.324;2022-10-17T18:15:04;26.08;;;13.70;;
73951;SDS011;62304;47.662;18.324;2022-10-17T18:18:08;28.47;;;14.07;;
73951;SDS011;62304;47.662;18.324;2022-10-17T18:21:12;29.77;;;14.52;;
73951;SDS011;62304;47.662;18.324;2022-10-17T18:24:16;24.70;;;13.70;;
73951;SDS011;62304;47.662;18.324;2022-10-17T18:27:24;26.52;;;14.25;;
73951;SDS011;62304;47.662;18.324;2022-10-17T18:30:28;23.73;;;12.00;;
73951;SDS011;62304;47.662;18.324;2022-10-17T18:33:35;15.90;;;6.53;;
73951;SDS011;62304;47.662;18.324;2022-10-17T18:36:39;20.27;;;10.07;;
73951;SDS011;62304;47.662;18.324;2022-10-17T18:39:42;14.55;;;7.10;;
73951;SDS011;62304;47.662;18.324;2022-10-17T18:42:46;20.30;;;8.25;;
73951;SDS011;62304;47.662;18.324;2022-10-17T18:45:50;10.50;;;5.30;;
73951;SDS011;62304;47.662;18.324;2022-10-17T18:48:58;19.20;;;8.60;;
73951;SDS011;62304;47.662;18.324;2022-10-17T18:52:01;17.30;;;8.13;;
73951;SDS011;62304;47.662;18.324;2022-10-17T18:55:05;15.82;;;6.80;;
73951;SDS011;62304;47.662;18.324;2022-10-17T18:58:09;14.43;;;7.22;;
73951;SDS011;62304;47.662;18.324;2022-10-17T19:01:13;14.75;;;6.55;;
73951;SDS011;62304;47.662;18.324;2022-10-17T19:04:19;13.50;;;6.70;;
73951;SDS011;62304;47.662;18.324;2022-10-17T19:07:23;14.23;;;6.10;;
73951;SDS011;62304;47.662;18.324;2022-10-17T19:10:26;12.55;;;5.45;;
73951;SDS011;62304;47.662;18.324;2022-10-17T19:13:30;12.20;;;6.15;;
73951;SDS011;62304;47.662;18.324;2022-10-17T19:16:34;18.40;;;7.30;;
73951;SDS011;62304;47.662;18.324;2022-10-17T19:19:43;15.93;;;6.83;;
73951;SDS011;62304;47.662;18.324;2022-10-17T19:22:49;13.05;;;5.85;;
73951;SDS011;62304;47.662;18.324;2022-10-17T19:26:02;13.85;;;5.97;;
73951;SDS011;62304;47.662;18.324;2022-10-17T19:29:08;9.93;;;5.65;;
73951;SDS011;62304;47.662;18.324;2022-10-17T19:32:13;11.57;;;5.32;;
73951;SDS011;62304;47.662;18.324;2022-10-17T19:35:25;10.03;;;4.40;;
73951;SDS011;62304;47.662;18.324;2022-10-17T19:38:30;9.27;;;5.37;;
73951;SDS011;62304;47.662;18.324;2022-10-17T19:41:33;10.80;;;5.07;;
73951;SDS011;62304;47.662;18.324;2022-10-17T19:44:37;11.98;;;5.62;;
73951;SDS011;62304;47.662;18.324;2022-10-17T19:47:41;9.32;;;4.55;;
73951;SDS011;62304;47.662;18.324;2022-10-17T19:50:44;9.43;;;5.20;;
73951;SDS011;62304;47.662;18.324;2022-10-17T19:53:47;10.05;;;5.25;;
73951;SDS011;62304;47.662;18.324;2022-10-17T19:56:50;10.70;;;4.62;;
73951;SDS011;62304;47.662;18.324;2022-10-17T19:59:54;10.32;;;5.03;;
73951;SDS011;62304;47.662;18.324;2022-10-17T20:02:59;8.90;;;4.78;;
73951;SDS011;62304;47.662;18.324;2022-10-17T20:06:05;9.90;;;4.60;;
73951;SDS011;62304;47.662;18.324;2022-10-17T20:09:08;9.77;;;5.00;;